Time;durP1;ratioP1;P1;durP2;ratioP2;P2;SDS_P1;SDS_P2;PMS_P1;PMS_P2;Temp;Humidity;BMP_temperature;BMP_pressure;BME280_temperature;BME280_humidity;BME280_pressure;Samples;Min_cycle;Max_cycle;Signal;HPM_P1;HPM_P2
2023/04/04 00:00:04;;;;;;;;;;;;;;;;;;5045085;28;43172;-77
2023/04/04 00:02:30;;;;;;;;;;;;;;;;;;5058124;28;43098;-76
2023/04/04 00:04:56;;;;;;;;;;;;;;;;;;5067494;28;43024;-77
2023/04/04 00:07:21;;;;;;;;;;;;;;;;;;5067051;28;43572;-76
2023/04/04 00:09:47;;;;;;;;;;;;;;;;;;5048921;28;43002;-75
2023/04/04 00:12:13;;;;;;;;;;;;;;;;;;5055502;28;43052;-76
2023/04/04 00:14:39;;;;;;;;;;;;;;;;;;5031480;28;43167;-77
2023/04/04 00:17:05;;;;;;;;;;;;;;;;;;5062957;28;43229;-77
2023/04/04 00:19:31;;;;;;;;;;;;;;;;;;5044969;28;42872;-78
2023/04/04 00:21:57;;;;;;;;;;;;;;;;;;5044818;28;42936;-78
2023/04/04 00:24:23;;;;;;;;;;;;;;;;;;5044852;28;43115;-77
2023/04/04 00:26:49;;;;;;;;;;;;;;;;;;5052288;28;43548;-77
2023/04/04 00:29:16;;;;;;;;;;;;;;;;;;5052528;28;42977;-77
2023/04/04 00:31:42;;;;;;;;;;;;;;;;;;5049363;28;43354;-77
2023/04/04 00:34:08;;;;;;;;;;;;;;;;;;5045050;28;42691;-77
2023/04/04 00:36:33;;;;;;;;;;;;;;;;;;5045412;28;43981;-78
2023/04/04 00:39:00;;;;;;;;;;;;;;;;;;5064911;28;42981;-78
2023/04/04 00:41:25;;;;;;;;;;;;;;;;;;5051183;28;44418;-76
2023/04/04 00:43:51;;;;;;;;;;;;;;;;;;5064161;28;42893;-77
2023/04/04 00:46:18;;;;;;;;;;;;;;;;;;5062743;28;43044;-77
2023/04/04 00:48:44;;;;;;;;;;;;;;;;;;5044599;28;43022;-77
2023/04/04 00:51:10;;;;;;;;;;;;;;;;;;5046424;28;43245;-78
2023/04/04 00:53:37;;;;;;;;;;;;;;;;;;5046580;28;43576;-77
2023/04/04 00:56:03;;;;;;;;;;;;;;;;;;5043380;28;43544;-77
2023/04/04 00:58:28;;;;;;;;;;;;;;;;;;5044121;28;43008;-77
2023/04/04 01:00:54;;;;;;;;;;;;;;;;;;5044610;28;43760;-77
2023/04/04 01:03:20;;;;;;;;;;;;;;;;;;5045525;28;43358;-77
2023/04/04 01:05:46;;;;;;;;;;;;;;;;;;5064300;28;43027;-77
2023/04/04 01:08:12;;;;;;;;;;;;;;;;;;5044163;28;42922;-77
2023/04/04 01:10:38;;;;;;;;;;;;;;;;;;5043707;28;43179;-77
2023/04/04 01:13:04;;;;;;;;;;;;;;;;;;5025487;28;43083;-78
2023/04/04 01:15:30;;;;;;;;;;;;;;;;;;5042723;28;43078;-77
2023/04/04 01:17:56;;;;;;;;;;;;;;;;;;5042308;28;43008;-77
2023/04/04 01:20:22;;;;;;;;;;;;;;;;;;5025568;28;44154;-76
2023/04/04 01:22:48;;;;;;;;;;;;;;;;;;5043609;28;42961;-77
2023/04/04 01:25:14;;;;;;;;;;;;;;;;;;5044364;28;42904;-78
2023/04/04 01:27:40;;;;;;;;;;;;;;;;;;5044286;28;43071;-77
2023/04/04 01:30:06;;;;;;;;;;;;;;;;;;5043649;28;43540;-77
2023/04/04 01:32:32;;;;;;;;;;;;;;;;;;5043857;28;43134;-78
2023/04/04 01:34:58;;;;;;;;;;;;;;;;;;5043963;28;43649;-77
2023/04/04 01:37:24;;;;;;;;;;;;;;;;;;5043355;28;42858;-77
2023/04/04 01:39:49;;;;;;;;;;;;;;;;;;5043222;28;43314;-78
2023/04/04 01:42:15;;;;;;;;;;;;;;;;;;5043121;28;42990;-77
2023/04/04 01:44:41;;;;;;;;;;;;;;;;;;5043369;28;43166;-77
2023/04/04 01:47:08;;;;;;;;;;;;;;;;;;5063940;28;42964;-77
2023/04/04 01:49:34;;;;;;;;;;;;;;;;;;5063064;28;43876;-78
2023/04/04 01:52:00;;;;;;;;;;;;;;;;;;5063768;28;42841;-77
2023/04/04 01:54:27;;;;;;;;;;;;;;;;;;5047733;28;43347;-77
2023/04/04 01:56:53;;;;;;;;;;;;;;;;;;5051099;28;43041;-78
2023/04/04 01:59:19;;;;;;;;;;;;;;;;;;5048288;28;43048;-77
2023/04/04 02:01:44;;;;;;;;;;;;;;;;;;5051160;28;43191;-76
2023/04/04 02:04:11;;;;;;;;;;;;;;;;;;5063321;28;42797;-76
2023/04/04 02:06:38;;;;;;;;;;;;;;;;;;5043121;28;43158;-76
2023/04/04 02:09:04;;;;;;;;;;;;;;;;;;5044951;28;43010;-77
2023/04/04 02:11:30;;;;;;;;;;;;;;;;;;5046546;28;42743;-77
2023/04/04 02:13:56;;;;;;;;;;;;;;;;;;5045426;28;43688;-77
2023/04/04 02:16:22;;;;;;;;;;;;;;;;;;5054176;28;43003;-76
2023/04/04 02:18:48;;;;;;;;;;;;;;;;;;5052192;28;43022;-76
2023/04/04 02:21:14;;;;;;;;;;;;;;;;;;5048472;28;42869;-77
2023/04/04 02:23:40;;;;;;;;;;;;;;;;;;5059768;28;43638;-76
2023/04/04 02:26:06;;;;;;;;;;;;;;;;;;5046703;28;42908;-77
2023/04/04 02:28:32;;;;;;;;;;;;;;;;;;5054929;28;43580;-77
2023/04/04 02:30:58;;;;;;;;;;;;;;;;;;5055772;28;43011;-75
2023/04/04 02:33:24;;;;;;;;;;;;;;;;;;5054430;28;42908;-77
2023/04/04 02:35:50;;;;;;;;;;;;;;;;;;5048732;28;43039;-76
2023/04/04 02:38:16;;;;;;;;;;;;;;;;;;5055558;28;43400;-78
2023/04/04 02:40:41;;;;;;;;;;;;;;;;;;5044947;28;42940;-76
2023/04/04 02:43:07;;;;;;;;;;;;;;;;;;5045521;28;43527;-77
2023/04/04 02:45:33;;;;;;;;;;;;;;;;;;5054841;28;42993;-77
2023/04/04 02:47:59;;;;;;;;;;;;;;;;;;5045792;28;44184;-77
2023/04/04 02:50:25;;;;;;;;;;;;;;;;;;5058807;28;44139;-76
2023/04/04 02:52:53;;;;;;;;;;;;;;;;;;5045336;28;43487;-76
2023/04/04 02:55:19;;;;;;;;;;;;;;;;;;5062327;28;42855;-77
2023/04/04 02:57:45;;;;;;;;;;;;;;;;;;5061365;28;42968;-77
2023/04/04 03:00:11;;;;;;;;;;;;;;;;;;5046735;28;42799;-77
2023/04/04 03:02:37;;;;;;;;;;;;;;;;;;5045252;28;43091;-77
2023/04/04 03:05:03;;;;;;;;;;;;;;;;;;5044950;28;43655;-77
2023/04/04 03:07:29;;;;;;;;;;;;;;;;;;5046098;28;43035;-76
2023/04/04 03:09:54;;;;;;;;;;;;;;;;;;5053708;28;43124;-77
2023/04/04 03:12:20;;;;;;;;;;;;;;;;;;5051884;28;44000;-77
2023/04/04 03:14:47;;;;;;;;;;;;;;;;;;5066167;28;42886;-77
2023/04/04 03:17:13;;;;;;;;;;;;;;;;;;5050683;28;43113;-77
2023/04/04 03:19:39;;;;;;;;;;;;;;;;;;5044915;28;42794;-77
2023/04/04 03:22:05;;;;;;;;;;;;;;;;;;5027300;28;43036;-77
2023/04/04 03:24:31;;;;;;;;;;;;;;;;;;5034748;28;43128;-76
2023/04/04 03:26:57;;;;;;;;;;;;;;;;;;5064488;28;42952;-77
2023/04/04 03:29:23;;;;;;;;;;;;;;;;;;5045583;28;42920;-77
2023/04/04 03:31:49;;;;;;;;;;;;;;;;;;5044645;28;42998;-77
2023/04/04 03:34:15;;;;;;;;;;;;;;;;;;5045618;28;42915;-77
2023/04/04 03:36:41;;;;;;;;;;;;;;;;;;5044770;28;43878;-77
2023/04/04 03:39:07;;;;;;;;;;;;;;;;;;5045383;28;42909;-75
2023/04/04 03:41:33;;;;;;;;;;;;;;;;;;5044929;28;42908;-78
2023/04/04 03:43:58;;;;;;;;;;;;;;;;;;5045509;28;43485;-77
2023/04/04 03:46:25;;;;;;;;;;;;;;;;;;5045085;28;43831;-76
2023/04/04 03:48:50;;;;;;;;;;;;;;;;;;5052492;28;43151;-77
2023/04/04 03:51:16;;;;;;;;;;;;;;;;;;5062501;28;43015;-77
2023/04/04 03:53:42;;;;;;;;;;;;;;;;;;5045423;28;43087;-76
2023/04/04 03:56:08;;;;;;;;;;;;;;;;;;5045350;28;42896;-76
2023/04/04 03:58:34;;;;;;;;;;;;;;;;;;5035085;28;43045;-77
2023/04/04 04:01:00;;;;;;;;;;;;;;;;;;5051274;28;43177;-77
2023/04/04 04:03:26;;;;;;;;;;;;;;;;;;5056813;28;42922;-78
2023/04/04 04:05:52;;;;;;;;;;;;;;;;;;5044802;28;42896;-77
2023/04/04 04:08:18;;;;;;;;;;;;;;;;;;5045081;28;42835;-77
2023/04/04 04:10:44;;;;;;;;;;;;;;;;;;5045787;28;43073;-78
2023/04/04 04:13:10;;;;;;;;;;;;;;;;;;5065022;28;42841;-78
2023/04/04 04:15:36;;;;;;;;;;;;;;;;;;5048390;28;43062;-78
2023/04/04 04:18:02;;;;;;;;;;;;;;;;;;5064275;28;42952;-78
2023/04/04 04:20:28;;;;;;;;;;;;;;;;;;5045050;28;43531;-77
2023/04/04 04:22:53;;;;;;;;;;;;;;;;;;5049823;28;43146;-77
2023/04/04 04:25:19;;;;;;;;;;;;;;;;;;5049043;28;43611;-78
2023/04/04 04:27:45;;;;;;;;;;;;;;;;;;5060072;28;43017;-78
2023/04/04 04:30:12;;;;;;;;;;;;;;;;;;5050823;28;42947;-77
2023/04/04 04:32:37;;;;;;;;;;;;;;;;;;5061262;28;43053;-77
2023/04/04 04:35:03;;;;;;;;;;;;;;;;;;5048659;28;44491;-78
2023/04/04 04:37:29;;;;;;;;;;;;;;;;;;5045589;28;43021;-78
2023/04/04 04:39:55;;;;;;;;;;;;;;;;;;5056071;28;43380;-77
2023/04/04 04:42:21;;;;;;;;;;;;;;;;;;5046401;28;43208;-76
2023/04/04 04:44:47;;;;;;;;;;;;;;;;;;5045705;28;43636;-77
2023/04/04 04:47:13;;;;;;;;;;;;;;;;;;5046446;28;43058;-78
2023/04/04 04:49:41;;;;;;;;;;;;;;;;;;5050151;28;43063;-78
2023/04/04 04:52:06;;;;;;;;;;;;;;;;;;5031558;28;43096;-77
2023/04/04 04:54:32;;;;;;;;;;;;;;;;;;5055464;28;42979;-78
2023/04/04 04:57:00;;;;;;;;;;;;;;;;;;5060942;28;43579;-80
2023/04/04 04:59:26;;;;;;;;;;;;;;;;;;5048422;28;43713;-77
2023/04/04 05:01:52;;;;;;;;;;;;;;;;;;5045931;28;42829;-79
2023/04/04 05:04:17;;;;;;;;;;;;;;;;;;5044861;28;43368;-77
2023/04/04 05:06:43;;;;;;;;;;;;;;;;;;5061902;28;43051;-79
2023/04/04 05:09:09;;;;;;;;;;;;;;;;;;5046561;28;42979;-78
2023/04/04 05:11:35;;;;;;;;;;;;;;;;;;5060429;28;42976;-78
2023/04/04 05:14:01;;;;;;;;;;;;;;;;;;5061838;28;42929;-78
2023/04/04 05:16:27;;;;;;;;;;;;;;;;;;5050052;28;42949;-79
2023/04/04 05:18:53;;;;;;;;;;;;;;;;;;5047629;28;43546;-78
2023/04/04 05:21:19;;;;;;;;;;;;;;;;;;5052136;28;44060;-80
2023/04/04 05:23:47;;;;;;;;;;;;;;;;;;5045222;28;44660;-78
2023/04/04 05:26:13;;;;;;;;;;;;;;;;;;5043795;28;42883;-77
2023/04/04 05:28:39;;;;;;;;;;;;;;;;;;5042973;28;43547;-76
2023/04/04 05:31:05;;;;;;;;;;;;;;;;;;5048098;28;43015;-76
2023/04/04 05:33:31;;;;;;;;;;;;;;;;;;5046500;28;43399;-77
2023/04/04 05:35:57;;;;;;;;;;;;;;;;;;5043328;28;43137;-76
2023/04/04 05:38:23;;;;;;;;;;;;;;;;;;5044360;28;43653;-77
2023/04/04 05:40:49;;;;;;;;;;;;;;;;;;5042532;28;43238;-77
2023/04/04 05:43:15;;;;;;;;;;;;;;;;;;5045306;28;44036;-76
2023/04/04 05:45:41;;;;;;;;;;;;;;;;;;5048644;28;43015;-77
2023/04/04 05:48:07;;;;;;;;;;;;;;;;;;5045627;28;43000;-76
2023/04/04 05:50:33;;;;;;;;;;;;;;;;;;5046157;28;43129;-76
2023/04/04 05:52:58;;;;;;;;;;;;;;;;;;5047832;28;43312;-77
2023/04/04 05:55:25;;;;;;;;;;;;;;;;;;5058848;28;43076;-78
2023/04/04 05:57:51;;;;;;;;;;;;;;;;;;5046583;28;43587;-75
2023/04/04 06:00:18;;;;;;;;;;;;;;;;;;5047895;28;43446;-76
2023/04/04 06:02:44;;;;;;;;;;;;;;;;;;5041919;28;43539;-76
2023/04/04 06:05:10;;;;;;;;;;;;;;;;;;5047226;28;42854;-77
2023/04/04 06:07:36;;;;;;;;;;;;;;;;;;5046991;28;42790;-77
2023/04/04 06:10:01;;;;;;;;;;;;;;;;;;5047081;28;42975;-76
2023/04/04 06:12:27;;;;;;;;;;;;;;;;;;5059872;28;42956;-76
2023/04/04 06:14:53;;;;;;;;;;;;;;;;;;5056039;28;43032;-77
2023/04/04 06:17:19;;;;;;;;;;;;;;;;;;5050579;28;43007;-76
2023/04/04 06:19:45;;;;;;;;;;;;;;;;;;5046452;28;42966;-77
2023/04/04 06:22:11;;;;;;;;;;;;;;;;;;5045584;28;43112;-75
2023/04/04 06:24:37;;;;;;;;;;;;;;;;;;5046792;28;42939;-75
2023/04/04 06:27:03;;;;;;;;;;;;;;;;;;5059843;28;42985;-76
2023/04/04 06:29:30;;;;;;;;;;;;;;;;;;5046349;28;42980;-75
2023/04/04 06:31:57;;;;;;;;;;;;;;;;;;5046299;28;44436;-78
2023/04/04 06:34:22;;;;;;;;;;;;;;;;;;5045510;28;42872;-77
2023/04/04 06:36:48;;;;;;;;;;;;;;;;;;5062145;28;42940;-77
2023/04/04 06:39:15;;;;;;;;;;;;;;;;;;5066370;28;42958;-76
2023/04/04 06:41:41;;;;;;;;;;;;;;;;;;5049626;28;43027;-76
2023/04/04 06:44:07;;;;;;;;;;;;;;;;;;5045994;28;42904;-76
2023/04/04 06:46:33;;;;;;;;;;;;;;;;;;5048598;28;43074;-78
2023/04/04 06:48:59;;;;;;;;;;;;;;;;;;5052293;28;42958;-80
2023/04/04 06:51:27;;;;;;;;;;;;;;;;;;5049075;28;43034;-81
2023/04/04 06:53:56;;;;;;;;;;;;;;;;;;5042019;28;43101;-79
2023/04/04 06:56:22;;;;;;;;;;;;;;;;;;5048794;28;44165;-79
2023/04/04 06:58:49;;;;;;;;;;;;;;;;;;5057171;28;42935;-81
2023/04/04 07:01:15;;;;;;;;;;;;;;;;;;5050404;28;43582;-80
2023/04/04 07:03:43;;;;;;;;;;;;;;;;;;5054024;28;42880;-79
2023/04/04 07:06:09;;;;;;;;;;;;;;;;;;5049523;28;42898;-79
2023/04/04 07:08:35;;;;;;;;;;;;;;;;;;5046334;28;42913;-78
2023/04/04 07:11:01;;;;;;;;;;;;;;;;;;5048809;28;44296;-78
2023/04/04 07:13:27;;;;;;;;;;;;;;;;;;5049901;28;43152;-79
2023/04/04 07:15:53;;;;;;;;;;;;;;;;;;5059936;28;43478;-79
2023/04/04 07:18:19;;;;;;;;;;;;;;;;;;5051860;28;43060;-79
2023/04/04 07:20:45;;;;;;;;;;;;;;;;;;5059194;28;43533;-80
2023/04/04 07:23:11;;;;;;;;;;;;;;;;;;5056614;28;42957;-82
2023/04/04 07:25:37;;;;;;;;;;;;;;;;;;5062128;28;43070;-80
2023/04/04 07:28:03;;;;;;;;;;;;;;;;;;5052974;28;42972;-81
2023/04/04 07:30:31;;;;;;;;;;;;;;;;;;5054378;28;43444;-81
2023/04/04 07:32:57;;;;;;;;;;;;;;;;;;5057401;28;42962;-80
2023/04/04 07:35:23;;;;;;;;;;;;;;;;;;5055274;28;43538;-80
2023/04/04 07:37:49;;;;;;;;;;;;;;;;;;5048644;28;43036;-82
2023/04/04 07:40:16;;;;;;;;;;;;;;;;;;5060288;28;42953;-79
2023/04/04 07:42:42;;;;;;;;;;;;;;;;;;5044922;28;42967;-79
2023/04/04 07:45:08;;;;;;;;;;;;;;;;;;5045110;28;42956;-82
2023/04/04 07:47:33;;;;;;;;;;;;;;;;;;5049287;28;43010;-79
2023/04/04 07:50:00;;;;;;;;;;;;;;;;;;5056787;28;43658;-79
2023/04/04 07:52:26;;;;;;;;;;;;;;;;;;5044526;28;42837;-81
2023/04/04 07:54:52;;;;;;;;;;;;;;;;;;5047444;28;43735;-81
2023/04/04 07:57:18;;;;;;;;;;;;;;;;;;5059289;28;42990;-79
2023/04/04 07:59:44;;;;;;;;;;;;;;;;;;5044587;28;42922;-80
2023/04/04 08:02:10;;;;;;;;;;;;;;;;;;5044392;28;42956;-81
2023/04/04 08:04:36;;;;;;;;;;;;;;;;;;5029607;28;44528;-79
2023/04/04 08:07:01;;;;;;;;;;;;;;;;;;5055675;28;42928;-81
2023/04/04 08:09:33;;;;;;;;;;;;;;;;;;5051742;28;44027;-81
2023/04/04 08:11:58;;;;;;;;;;;;;;;;;;5064996;28;43463;-79
2023/04/04 08:14:24;;;;;;;;;;;;;;;;;;5059803;28;43222;-81
2023/04/04 08:16:50;;;;;;;;;;;;;;;;;;5053656;28;43626;-80
2023/04/04 08:19:16;;;;;;;;;;;;;;;;;;5040599;28;43055;-78
2023/04/04 08:21:43;;;;;;;;;;;;;;;;;;5031048;28;43018;-81
2023/04/04 08:24:09;;;;;;;;;;;;;;;;;;5033398;28;42982;-82
2023/04/04 08:26:35;;;;;;;;;;;;;;;;;;5024579;28;42839;-81
2023/04/04 08:29:01;;;;;;;;;;;;;;;;;;5033374;28;43105;-82
2023/04/04 08:31:28;;;;;;;;;;;;;;;;;;5036317;28;42999;-81
2023/04/04 08:33:54;;;;;;;;;;;;;;;;;;5010201;28;42968;-81
2023/04/04 08:36:20;;;;;;;;;;;;;;;;;;5031551;28;43597;-80
2023/04/04 08:38:46;;;;;;;;;;;;;;;;;;5026694;28;43404;-79
2023/04/04 08:41:14;;;;;;;;;;;;;;;;;;5032083;28;42941;-80
2023/04/04 08:43:40;;;;;;;;;;;;;;;;;;5039899;28;43361;-79
2023/04/04 08:46:07;;;;;;;;;;;;;;;;;;5031089;28;42791;-81
2023/04/04 08:48:33;;;;;;;;;;;;;;;;;;5041240;28;43126;-80
2023/04/04 08:50:59;;;;;;;;;;;;;;;;;;5033295;28;44011;-82
2023/04/04 08:53:25;;;;;;;;;;;;;;;;;;5037325;28;42881;-79
2023/04/04 08:55:51;;;;;;;;;;;;;;;;;;5026127;28;43033;-81
2023/04/04 08:58:17;;;;;;;;;;;;;;;;;;5037477;28;43677;-80
2023/04/04 09:00:43;;;;;;;;;;;;;;;;;;5031749;28;42921;-80
2023/04/04 09:03:09;;;;;;;;;;;;;;;;;;5025474;28;43587;-81
2023/04/04 09:05:35;;;;;;;;;;;;;;;;;;5031983;28;42993;-82
2023/04/04 09:08:02;;;;;;;;;;;;;;;;;;5038232;28;44375;-81
2023/04/04 09:10:28;;;;;;;;;;;;;;;;;;5042326;28;42938;-81
2023/04/04 09:12:54;;;;;;;;;;;;;;;;;;5024584;28;43308;-78
2023/04/04 09:15:20;;;;;;;;;;;;;;;;;;5017031;28;42881;-81
2023/04/04 09:17:46;;;;;;;;;;;;;;;;;;5043142;28;43071;-80
2023/04/04 09:20:12;;;;;;;;;;;;;;;;;;5057762;28;43003;-79
2023/04/04 09:22:38;;;;;;;;;;;;;;;;;;5055754;28;43279;-79
2023/04/04 09:25:04;;;;;;;;;;;;;;;;;;5065933;28;42967;-79
2023/04/04 09:27:29;;;;;;;;;;;;;;;;;;5065023;28;42988;-79
2023/04/04 09:29:56;;;;;;;;;;;;;;;;;;5054727;28;43048;-80
2023/04/04 09:32:23;;;;;;;;;;;;;;;;;;5033906;28;43604;-79
2023/04/04 09:34:49;;;;;;;;;;;;;;;;;;5054858;28;43020;-79
2023/04/04 09:37:15;;;;;;;;;;;;;;;;;;5046939;28;42913;-80
2023/04/04 09:39:42;;;;;;;;;;;;;;;;;;5058476;28;43140;-89
2023/04/04 09:42:08;;;;;;;;;;;;;;;;;;5041670;28;43999;-88
2023/04/04 09:44:34;;;;;;;;;;;;;;;;;;5042149;28;42986;-89
2023/04/04 09:47:00;;;;;;;;;;;;;;;;;;5056514;28;43882;-89
2023/04/04 09:49:26;;;;;;;;;;;;;;;;;;5028987;28;43078;-89
2023/04/04 09:51:51;;;;;;;;;;;;;;;;;;5029753;28;44207;-88
2023/04/04 09:54:17;;;;;;;;;;;;;;;;;;5054722;28;42861;-89
2023/04/04 09:56:43;;;;;;;;;;;;;;;;;;5030184;28;44052;-85
2023/04/04 09:59:10;;;;;;;;;;;;;;;;;;5055152;28;43052;-86
2023/04/04 10:01:36;;;;;;;;;;;;;;;;;;5053975;28;43146;-86
2023/04/04 10:04:02;;;;;;;;;;;;;;;;;;5062662;28;42920;-85
2023/04/04 10:06:28;;;;;;;;;;;;;;;;;;5051231;28;43340;-85
2023/04/04 10:08:54;;;;;;;;;;;;;;;;;;5051810;28;42884;-86
2023/04/04 10:11:20;;;;;;;;;;;;;;;;;;5053476;28;42897;-88
2023/04/04 10:13:46;;;;;;;;;;;;;;;;;;5066112;28;43148;-85
2023/04/04 10:16:12;;;;;;;;;;;;;;;;;;5052814;28;42978;-86
2023/04/04 10:18:38;;;;;;;;;;;;;;;;;;5052843;28;42917;-87
2023/04/04 10:21:04;;;;;;;;;;;;;;;;;;5027941;28;44617;-85
2023/04/04 10:23:30;;;;;;;;;;;;;;;;;;5057994;28;43056;-84
2023/04/04 10:25:56;;;;;;;;;;;;;;;;;;5028445;28;42821;-84
2023/04/04 10:28:22;;;;;;;;;;;;;;;;;;5045873;28;42922;-84
2023/04/04 10:30:48;;;;;;;;;;;;;;;;;;5052515;28;43515;-84
2023/04/04 10:33:14;;;;;;;;;;;;;;;;;;5059173;28;43048;-86
2023/04/04 10:35:40;;;;;;;;;;;;;;;;;;5038586;28;43140;-83
2023/04/04 10:38:07;;;;;;;;;;;;;;;;;;5059054;28;42981;-82
2023/04/04 10:40:33;;;;;;;;;;;;;;;;;;5046404;28;42743;-83
2023/04/04 10:42:59;;;;;;;;;;;;;;;;;;5057680;28;42833;-85
2023/04/04 10:45:25;;;;;;;;;;;;;;;;;;5060980;28;43710;-85
2023/04/04 10:47:51;;;;;;;;;;;;;;;;;;5063652;28;43094;-88
2023/04/04 10:50:17;;;;;;;;;;;;;;;;;;5065962;28;43304;-85
2023/04/04 10:52:43;;;;;;;;;;;;;;;;;;5064608;28;42926;-86
2023/04/04 10:55:09;;;;;;;;;;;;;;;;;;5066344;28;43667;-84
2023/04/04 10:57:35;;;;;;;;;;;;;;;;;;5063405;28;42968;-81
2023/04/04 11:00:02;;;;;;;;;;;;;;;;;;5057716;28;43606;-82
2023/04/04 11:02:28;;;;;;;;;;;;;;;;;;5047427;28;43092;-82
2023/04/04 11:04:54;;;;;;;;;;;;;;;;;;5058330;28;43959;-79
2023/04/04 11:07:20;;;;;;;;;;;;;;;;;;5062870;28;43081;-80
2023/04/04 11:09:47;;;;;;;;;;;;;;;;;;5044755;28;43040;-80
2023/04/04 11:12:20;;;;;;;;;;;;;;;;;;5046219;28;42998;-80
2023/04/04 11:14:46;;;;;;;;;;;;;;;;;;5063930;28;43035;-80
2023/04/04 11:17:12;;;;;;;;;;;;;;;;;;5047714;28;42919;-82
2023/04/04 11:19:38;;;;;;;;;;;;;;;;;;5043568;28;43629;-80
2023/04/04 11:22:03;;;;;;;;;;;;;;;;;;5045178;28;43841;-76
2023/04/04 11:24:29;;;;;;;;;;;;;;;;;;5049094;28;43305;-77
2023/04/04 11:26:55;;;;;;;;;;;;;;;;;;5052602;28;43324;-76
2023/04/04 11:29:22;;;;;;;;;;;;;;;;;;5043693;28;43679;-76
2023/04/04 11:31:49;;;;;;;;;;;;;;;;;;5048799;28;42974;-76
2023/04/04 11:34:15;;;;;;;;;;;;;;;;;;5058062;28;43008;-77
2023/04/04 11:36:43;;;;;;;;;;;;;;;;;;5055452;28;43409;-78
2023/04/04 11:39:09;;;;;;;;;;;;;;;;;;5056492;28;43554;-75
2023/04/04 11:41:35;;;;;;;;;;;;;;;;;;5042995;28;42897;-76
2023/04/04 11:44:01;;;;;;;;;;;;;;;;;;5052534;28;43190;-78
2023/04/04 11:46:27;;;;;;;;;;;;;;;;;;5058219;28;43364;-78
2023/04/04 11:48:53;;;;;;;;;;;;;;;;;;5049199;28;42963;-77
2023/04/04 11:51:19;;;;;;;;;;;;;;;;;;5057016;28;43003;-78
2023/04/04 11:53:46;;;;;;;;;;;;;;;;;;5044788;28;42860;-80
2023/04/04 11:56:12;;;;;;;;;;;;;;;;;;5054428;28;43204;-75
2023/04/04 11:58:38;;;;;;;;;;;;;;;;;;5052626;28;43593;-80
2023/04/04 12:01:04;;;;;;;;;;;;;;;;;;5054151;28;43104;-78
2023/04/04 12:03:30;;;;;;;;;;;;;;;;;;5044650;28;42948;-80
2023/04/04 12:05:56;;;;;;;;;;;;;;;;;;5037669;28;43128;-80
2023/04/04 12:08:23;;;;;;;;;;;;;;;;;;5054022;28;43800;-81
2023/04/04 12:10:49;;;;;;;;;;;;;;;;;;5052348;28;42861;-79
2023/04/04 12:13:15;;;;;;;;;;;;;;;;;;5059303;28;42904;-77
2023/04/04 12:15:42;;;;;;;;;;;;;;;;;;5041136;28;43122;-78
2023/04/04 12:18:08;;;;;;;;;;;;;;;;;;5060381;28;43035;-77
2023/04/04 12:20:34;;;;;;;;;;;;;;;;;;5058672;28;42817;-78
2023/04/04 12:23:00;;;;;;;;;;;;;;;;;;5060720;28;43764;-81
2023/04/04 12:25:28;;;;;;;;;;;;;;;;;;5042477;28;44329;-76
2023/04/04 12:27:54;;;;;;;;;;;;;;;;;;5049104;28;42975;-75
2023/04/04 12:30:20;;;;;;;;;;;;;;;;;;5033767;28;43142;-78
2023/04/04 12:32:48;;;;;;;;;;;;;;;;;;5048126;28;64085;-83
2023/04/04 12:35:14;;;;;;;;;;;;;;;;;;5054386;28;42923;-82
2023/04/04 12:37:40;;;;;;;;;;;;;;;;;;5036669;28;44444;-82
2023/04/04 12:40:06;;;;;;;;;;;;;;;;;;5057923;28;43021;-82
2023/04/04 12:42:32;;;;;;;;;;;;;;;;;;5038544;28;43638;-81
2023/04/04 12:44:58;;;;;;;;;;;;;;;;;;5048401;28;42945;-81
2023/04/04 12:47:25;;;;;;;;;;;;;;;;;;5029669;28;44285;-82
2023/04/04 12:49:52;;;;;;;;;;;;;;;;;;5033009;28;43820;-83
2023/04/04 12:52:19;;;;;;;;;;;;;;;;;;5053182;28;44608;-83
2023/04/04 12:54:45;;;;;;;;;;;;;;;;;;5032507;28;43157;-83
2023/04/04 12:57:13;;;;;;;;;;;;;;;;;;5050428;28;42992;-83
2023/04/04 12:59:39;;;;;;;;;;;;;;;;;;5043931;28;42900;-84
2023/04/04 13:02:05;;;;;;;;;;;;;;;;;;5053511;28;43560;-81
2023/04/04 13:04:32;;;;;;;;;;;;;;;;;;5041808;28;43071;-82
2023/04/04 13:06:59;;;;;;;;;;;;;;;;;;5044203;28;43053;-82
2023/04/04 13:09:25;;;;;;;;;;;;;;;;;;5043485;28;43015;-81
2023/04/04 13:11:51;;;;;;;;;;;;;;;;;;5050228;28;43236;-81
2023/04/04 13:14:18;;;;;;;;;;;;;;;;;;5043217;28;42996;-82
2023/04/04 13:16:44;;;;;;;;;;;;;;;;;;5045399;28;43512;-83
2023/04/04 13:19:10;;;;;;;;;;;;;;;;;;5052941;28;42999;-83
2023/04/04 13:21:35;;;;;;;;;;;;;;;;;;5051749;28;43475;-80
2023/04/04 13:24:02;;;;;;;;;;;;;;;;;;5047388;28;42933;-83
2023/04/04 13:26:28;;;;;;;;;;;;;;;;;;5060671;28;43610;-84
2023/04/04 13:28:54;;;;;;;;;;;;;;;;;;5059463;28;43025;-84
2023/04/04 13:31:20;;;;;;;;;;;;;;;;;;5052626;28;43041;-84
2023/04/04 13:33:46;;;;;;;;;;;;;;;;;;5044617;28;42998;-85
2023/04/04 13:36:13;;;;;;;;;;;;;;;;;;5052638;28;43656;-82
2023/04/04 13:38:39;;;;;;;;;;;;;;;;;;5059117;28;42983;-83
2023/04/04 13:41:04;;;;;;;;;;;;;;;;;;5042683;28;43758;-83
2023/04/04 13:43:30;;;;;;;;;;;;;;;;;;5042208;28;42991;-84
2023/04/04 13:45:56;;;;;;;;;;;;;;;;;;5043282;28;42841;-83
2023/04/04 13:48:22;;;;;;;;;;;;;;;;;;5049919;28;43017;-84
2023/04/04 13:50:52;;;;;;;;;;;;;;;;;;5044434;28;43512;-84
2023/04/04 13:53:18;;;;;;;;;;;;;;;;;;5045540;28;43322;-84
2023/04/04 13:55:44;;;;;;;;;;;;;;;;;;5052749;28;42964;-84
2023/04/04 13:58:10;;;;;;;;;;;;;;;;;;5041423;28;43114;-84
2023/04/04 14:00:37;;;;;;;;;;;;;;;;;;5043773;28;43634;-84
2023/04/04 14:03:03;;;;;;;;;;;;;;;;;;5042611;28;42996;-84
2023/04/04 14:05:29;;;;;;;;;;;;;;;;;;5047022;28;43066;-85
2023/04/04 14:07:55;;;;;;;;;;;;;;;;;;5047092;28;43087;-83
2023/04/04 14:10:21;;;;;;;;;;;;;;;;;;5045372;28;43233;-84
2023/04/04 14:12:46;;;;;;;;;;;;;;;;;;5035415;28;42913;-84
2023/04/04 14:15:12;;;;;;;;;;;;;;;;;;5049565;28;42868;-84
2023/04/04 14:17:38;;;;;;;;;;;;;;;;;;5055853;28;42818;-84
2023/04/04 14:20:04;;;;;;;;;;;;;;;;;;5047325;28;43093;-84
2023/04/04 14:22:32;;;;;;;;;;;;;;;;;;5039673;28;42879;-84
2023/04/04 14:24:58;;;;;;;;;;;;;;;;;;5036303;28;42987;-84
2023/04/04 14:27:24;;;;;;;;;;;;;;;;;;5047630;28;43238;-84
2023/04/04 14:29:50;;;;;;;;;;;;;;;;;;5059754;28;43390;-84
2023/04/04 14:32:16;;;;;;;;;;;;;;;;;;5064096;28;43051;-84
2023/04/04 14:34:42;;;;;;;;;;;;;;;;;;5064017;28;44295;-84
2023/04/04 14:37:07;;;;;;;;;;;;;;;;;;5065502;28;42990;-85
2023/04/04 14:39:33;;;;;;;;;;;;;;;;;;5057517;28;43543;-85
2023/04/04 14:41:59;;;;;;;;;;;;;;;;;;5052906;28;43075;-84
2023/04/04 14:44:26;;;;;;;;;;;;;;;;;;5053526;28;43848;-83
2023/04/04 14:46:52;;;;;;;;;;;;;;;;;;5061187;28;42931;-84
2023/04/04 14:49:18;;;;;;;;;;;;;;;;;;5052758;28;43484;-84
2023/04/04 14:51:44;;;;;;;;;;;;;;;;;;5063507;28;42975;-84
2023/04/04 14:54:10;;;;;;;;;;;;;;;;;;5053615;28;43566;-83
2023/04/04 14:56:36;;;;;;;;;;;;;;;;;;5047062;28;42809;-83
2023/04/04 14:59:04;;;;;;;;;;;;;;;;;;5065411;28;43554;-83
2023/04/04 15:01:30;;;;;;;;;;;;;;;;;;5040447;28;42951;-84
2023/04/04 15:03:56;;;;;;;;;;;;;;;;;;5034462;28;45302;-84
2023/04/04 15:06:22;;;;;;;;;;;;;;;;;;5052183;28;43022;-84
2023/04/04 15:08:48;;;;;;;;;;;;;;;;;;5035799;28;44516;-83
2023/04/04 15:11:15;;;;;;;;;;;;;;;;;;5059442;28;43042;-84
2023/04/04 15:13:41;;;;;;;;;;;;;;;;;;5051386;28;42902;-84
2023/04/04 15:16:07;;;;;;;;;;;;;;;;;;5046035;28;43036;-84
2023/04/04 15:18:33;;;;;;;;;;;;;;;;;;5047085;28;43462;-84
2023/04/04 15:20:59;;;;;;;;;;;;;;;;;;5041909;28;43022;-84
2023/04/04 15:23:24;;;;;;;;;;;;;;;;;;5048217;28;42923;-84
2023/04/04 15:25:50;;;;;;;;;;;;;;;;;;5049864;28;42905;-84
2023/04/04 15:28:16;;;;;;;;;;;;;;;;;;5043079;28;43020;-83
2023/04/04 15:30:42;;;;;;;;;;;;;;;;;;5050394;28;42969;-84
2023/04/04 15:33:08;;;;;;;;;;;;;;;;;;5059839;28;42999;-83
2023/04/04 15:35:34;;;;;;;;;;;;;;;;;;5044929;28;43091;-84
2023/04/04 15:38:00;;;;;;;;;;;;;;;;;;5051806;28;42993;-84
2023/04/04 15:40:26;;;;;;;;;;;;;;;;;;5050998;28;42905;-84
2023/04/04 15:42:51;;;;;;;;;;;;;;;;;;5064916;28;42998;-81
2023/04/04 15:45:17;;;;;;;;;;;;;;;;;;5058116;28;43046;-82
2023/04/04 15:47:43;;;;;;;;;;;;;;;;;;5052582;28;42942;-82
2023/04/04 15:50:10;;;;;;;;;;;;;;;;;;5055435;28;42867;-82
2023/04/04 15:52:36;;;;;;;;;;;;;;;;;;5050954;28;43043;-82
2023/04/04 15:55:02;;;;;;;;;;;;;;;;;;5046450;28;43153;-82
2023/04/04 15:57:28;;;;;;;;;;;;;;;;;;5052724;28;42940;-82
2023/04/04 15:59:54;;;;;;;;;;;;;;;;;;5042053;28;42898;-82
2023/04/04 16:02:20;;;;;;;;;;;;;;;;;;5057308;28;43722;-82
2023/04/04 16:04:45;;;;;;;;;;;;;;;;;;5051292;28;44130;-82
2023/04/04 16:07:11;;;;;;;;;;;;;;;;;;5044788;28;43564;-83
2023/04/04 16:09:37;;;;;;;;;;;;;;;;;;5059744;28;42797;-83
2023/04/04 16:12:05;;;;;;;;;;;;;;;;;;5051509;28;42892;-81
2023/04/04 16:14:30;;;;;;;;;;;;;;;;;;5040589;28;43107;-84
2023/04/04 16:16:56;;;;;;;;;;;;;;;;;;5044602;28;43616;-85
2023/04/04 16:19:22;;;;;;;;;;;;;;;;;;5049867;28;42928;-83
2023/04/04 16:21:48;;;;;;;;;;;;;;;;;;5063761;28;43067;-84
2023/04/04 16:24:14;;;;;;;;;;;;;;;;;;5047318;28;42857;-83
2023/04/04 16:26:46;;;;;;;;;;;;;;;;;;5051949;28;42958;-84
2023/04/04 16:29:12;;;;;;;;;;;;;;;;;;5060393;28;43326;-83
2023/04/04 16:31:37;;;;;;;;;;;;;;;;;;5057917;28;43670;-83
2023/04/04 16:34:03;;;;;;;;;;;;;;;;;;5053426;28;42833;-85
2023/04/04 16:36:29;;;;;;;;;;;;;;;;;;5062358;28;43012;-85